Strona główna
METAR-TAF:

METAR-TAF

Lotnisko :

Port lotniczy Rabat-Sala

Rabat, Maroko

Szerokość geograficzna: 34-03N, Długość geograficzna: 006-46W, wysokość: 84 m

Aktualna obserwacja pogody

Raport powstał 22 minut temu, godzina 16:30 UTC
Wiatr 11 kt od północny zachód
Temperatura 23°C
Wilgotność 65%
Ciśnienie 1017 hPa
Widzialność: 8000 m
Mało chmury na wysokości 1300 ft
Rozproszone chmury na wysokości 2000 ft

METAR: GMME 191630Z 32011KT 8000 FEW013 SCT020 23/16 Q1017 NOSIG

czas: 17:52 (16:52 UTC)

Prognoza

Raport powstał 5 godziny i 52 minut temu, godzina 11:00 UTC
Prognoza ważna od 19 godzina 12 UTC do 20 godzina 18 UTC
Wiatr 11 kt od północny zachód
Widzialność: 8000 m
Rozproszone chmury na wysokości 2000 ft
Przejściowo
od 19 godzina 18 UTC do 19 godzina 21 UTC
Wiatr 8 kt od północno-północny wschód

TAF: GMME 191100Z 1912/2018 32011KT 8000 SCT020 TEMPO 1918/1921 02008KT

Obserwacja i prognoza pogody dla ponad 4000 lotnisk (raport METAR i TAF).

Dostępne stacje oznaczono żółtymi i czerwonymi punktami na mapie.

Najedź kursorem aby zobaczyć nazwę stacji.

Kliknij aby zobaczyć obserwacje i prognozy pogody.

Aby zmienić mapę: kliknij na zielony przycisk z czarnym krzyżykiem, aby powiększyć; na zielony przycisk z myślnikiem, aby pomniejszyć; na zielone strzałki, aby przejść do map sąsiednich.


METAR-TAF: